sensor_id;sensor_type;location;lat;lon;timestamp;P1;durP1;ratioP1;P2;durP2;ratioP2
67819;SDS011;54618;52.018;5.576;2023-07-29T00:01:31;3.85;;;1.30;;
67819;SDS011;54618;52.018;5.576;2023-07-29T00:03:57;3.83;;;1.40;;
67819;SDS011;54618;52.018;5.576;2023-07-29T00:06:23;3.22;;;1.20;;
67819;SDS011;54618;52.018;5.576;2023-07-29T00:08:49;3.45;;;1.20;;
67819;SDS011;54618;52.018;5.576;2023-07-29T00:11:14;3.38;;;1.20;;
67819;SDS011;54618;52.018;5.576;2023-07-29T00:13:40;4.18;;;1.15;;
67819;SDS011;54618;52.018;5.576;2023-07-29T00:16:05;4.07;;;1.45;;
67819;SDS011;54618;52.018;5.576;2023-07-29T00:18:31;2.75;;;1.25;;
67819;SDS011;54618;52.018;5.576;2023-07-29T00:20:57;3.65;;;1.35;;
67819;SDS011;54618;52.018;5.576;2023-07-29T00:23:22;3.38;;;1.35;;
67819;SDS011;54618;52.018;5.576;2023-07-29T00:25:48;4.22;;;1.10;;
67819;SDS011;54618;52.018;5.576;2023-07-29T00:28:13;2.15;;;0.90;;
67819;SDS011;54618;52.018;5.576;2023-07-29T00:30:39;3.38;;;1.35;;
67819;SDS011;54618;52.018;5.576;2023-07-29T00:33:05;10.55;;;1.40;;
67819;SDS011;54618;52.018;5.576;2023-07-29T00:35:30;5.05;;;1.20;;
67819;SDS011;54618;52.018;5.576;2023-07-29T00:37:56;3.13;;;1.40;;
67819;SDS011;54618;52.018;5.576;2023-07-29T00:40:22;3.92;;;1.10;;
67819;SDS011;54618;52.018;5.576;2023-07-29T00:42:48;5.05;;;1.42;;
67819;SDS011;54618;52.018;5.576;2023-07-29T00:45:15;4.03;;;1.50;;
67819;SDS011;54618;52.018;5.576;2023-07-29T00:47:41;3.55;;;1.30;;
67819;SDS011;54618;52.018;5.576;2023-07-29T00:50:09;3.85;;;1.30;;
67819;SDS011;54618;52.018;5.576;2023-07-29T00:52:36;4.15;;;1.20;;
67819;SDS011;54618;52.018;5.576;2023-07-29T00:55:01;3.13;;;1.15;;
67819;SDS011;54618;52.018;5.576;2023-07-29T01:00:02;4.82;;;1.40;;
67819;SDS011;54618;52.018;5.576;2023-07-29T01:02:29;2.55;;;1.17;;
67819;SDS011;54618;52.018;5.576;2023-07-29T01:04:57;6.53;;;1.40;;
67819;SDS011;54618;52.018;5.576;2023-07-29T01:13:13;5.60;;;1.90;;
67819;SDS011;54618;52.018;5.576;2023-07-29T01:16:10;4.50;;;1.70;;
67819;SDS011;54618;52.018;5.576;2023-07-29T01:18:45;9.98;;;1.88;;
67819;SDS011;54618;52.018;5.576;2023-07-29T01:21:12;8.35;;;1.88;;
67819;SDS011;54618;52.018;5.576;2023-07-29T01:23:39;6.68;;;1.80;;
67819;SDS011;54618;52.018;5.576;2023-07-29T01:26:05;3.63;;;1.50;;
67819;SDS011;54618;52.018;5.576;2023-07-29T01:28:30;7.28;;;1.60;;
67819;SDS011;54618;52.018;5.576;2023-07-29T01:30:57;3.00;;;1.55;;
67819;SDS011;54618;52.018;5.576;2023-07-29T01:36:03;6.78;;;1.50;;
67819;SDS011;54618;52.018;5.576;2023-07-29T01:38:36;5.13;;;1.80;;
67819;SDS011;54618;52.018;5.576;2023-07-29T01:41:06;5.60;;;2.10;;
67819;SDS011;54618;52.018;5.576;2023-07-29T01:43:33;5.18;;;2.28;;
67819;SDS011;54618;52.018;5.576;2023-07-29T01:46:07;7.40;;;2.00;;
67819;SDS011;54618;52.018;5.576;2023-07-29T01:48:43;3.65;;;2.05;;
67819;SDS011;54618;52.018;5.576;2023-07-29T01:51:10;5.53;;;2.53;;
67819;SDS011;54618;52.018;5.576;2023-07-29T01:53:37;4.30;;;2.60;;
67819;SDS011;54618;52.018;5.576;2023-07-29T01:56:02;8.80;;;2.90;;
67819;SDS011;54618;52.018;5.576;2023-07-29T01:58:28;5.72;;;2.45;;
67819;SDS011;54618;52.018;5.576;2023-07-29T02:00:53;6.60;;;2.75;;
67819;SDS011;54618;52.018;5.576;2023-07-29T02:03:19;8.52;;;2.85;;
67819;SDS011;54618;52.018;5.576;2023-07-29T02:05:44;8.88;;;3.47;;
67819;SDS011;54618;52.018;5.576;2023-07-29T02:08:10;8.50;;;3.13;;
67819;SDS011;54618;52.018;5.576;2023-07-29T02:10:36;6.07;;;3.00;;
67819;SDS011;54618;52.018;5.576;2023-07-29T02:13:02;6.80;;;3.28;;
67819;SDS011;54618;52.018;5.576;2023-07-29T02:15:30;6.97;;;3.22;;
67819;SDS011;54618;52.018;5.576;2023-07-29T02:17:55;7.25;;;3.08;;
67819;SDS011;54618;52.018;5.576;2023-07-29T02:20:21;9.35;;;3.50;;
67819;SDS011;54618;52.018;5.576;2023-07-29T02:22:46;7.32;;;3.03;;
67819;SDS011;54618;52.018;5.576;2023-07-29T02:25:13;8.27;;;3.80;;
67819;SDS011;54618;52.018;5.576;2023-07-29T02:27:39;7.72;;;3.80;;
67819;SDS011;54618;52.018;5.576;2023-07-29T02:30:05;9.32;;;3.45;;
67819;SDS011;54618;52.018;5.576;2023-07-29T02:32:31;8.55;;;3.72;;
67819;SDS011;54618;52.018;5.576;2023-07-29T02:34:56;6.30;;;3.10;;
67819;SDS011;54618;52.018;5.576;2023-07-29T02:37:22;9.73;;;3.05;;
67819;SDS011;54618;52.018;5.576;2023-07-29T02:39:47;6.88;;;3.42;;
67819;SDS011;54618;52.018;5.576;2023-07-29T02:42:13;8.77;;;3.75;;
67819;SDS011;54618;52.018;5.576;2023-07-29T02:44:39;6.20;;;3.50;;
67819;SDS011;54618;52.018;5.576;2023-07-29T02:47:05;9.98;;;4.03;;
67819;SDS011;54618;52.018;5.576;2023-07-29T02:49:31;10.73;;;3.65;;
67819;SDS011;54618;52.018;5.576;2023-07-29T02:51:56;9.25;;;3.80;;
67819;SDS011;54618;52.018;5.576;2023-07-29T02:54:22;9.77;;;3.75;;
67819;SDS011;54618;52.018;5.576;2023-07-29T02:56:47;13.23;;;3.58;;
67819;SDS011;54618;52.018;5.576;2023-07-29T02:59:15;9.15;;;3.40;;
67819;SDS011;54618;52.018;5.576;2023-07-29T03:01:41;7.28;;;3.38;;
67819;SDS011;54618;52.018;5.576;2023-07-29T03:04:06;7.32;;;3.35;;
67819;SDS011;54618;52.018;5.576;2023-07-29T03:06:32;9.68;;;3.10;;
67819;SDS011;54618;52.018;5.576;2023-07-29T03:08:57;9.40;;;3.35;;
67819;SDS011;54618;52.018;5.576;2023-07-29T03:11:23;6.43;;;3.08;;
67819;SDS011;54618;52.018;5.576;2023-07-29T03:13:48;8.10;;;3.40;;
67819;SDS011;54618;52.018;5.576;2023-07-29T03:16:14;7.53;;;3.33;;
67819;SDS011;54618;52.018;5.576;2023-07-29T03:18:41;6.38;;;3.20;;
67819;SDS011;54618;52.018;5.576;2023-07-29T03:21:08;6.93;;;3.15;;
67819;SDS011;54618;52.018;5.576;2023-07-29T03:23:37;6.05;;;3.00;;
67819;SDS011;54618;52.018;5.576;2023-07-29T03:26:06;8.50;;;2.97;;
67819;SDS011;54618;52.018;5.576;2023-07-29T03:28:36;7.57;;;3.05;;
67819;SDS011;54618;52.018;5.576;2023-07-29T03:31:05;6.40;;;3.38;;
67819;SDS011;54618;52.018;5.576;2023-07-29T03:33:31;7.30;;;3.20;;
67819;SDS011;54618;52.018;5.576;2023-07-29T03:35:56;5.78;;;2.78;;
67819;SDS011;54618;52.018;5.576;2023-07-29T03:38:22;4.70;;;2.65;;
67819;SDS011;54618;52.018;5.576;2023-07-29T03:40:47;12.30;;;2.88;;
67819;SDS011;54618;52.018;5.576;2023-07-29T03:43:13;7.88;;;2.67;;
67819;SDS011;54618;52.018;5.576;2023-07-29T03:45:39;5.07;;;2.65;;
67819;SDS011;54618;52.018;5.576;2023-07-29T03:48:05;6.80;;;2.65;;
67819;SDS011;54618;52.018;5.576;2023-07-29T03:50:32;6.05;;;2.88;;
67819;SDS011;54618;52.018;5.576;2023-07-29T03:53:02;7.38;;;2.70;;
67819;SDS011;54618;52.018;5.576;2023-07-29T03:55:29;6.78;;;2.75;;
67819;SDS011;54618;52.018;5.576;2023-07-29T03:57:56;5.47;;;2.55;;
67819;SDS011;54618;52.018;5.576;2023-07-29T04:00:22;6.72;;;2.95;;
67819;SDS011;54618;52.018;5.576;2023-07-29T04:02:48;5.55;;;2.72;;
67819;SDS011;54618;52.018;5.576;2023-07-29T04:05:14;6.22;;;2.63;;
67819;SDS011;54618;52.018;5.576;2023-07-29T04:07:40;3.78;;;2.47;;
67819;SDS011;54618;52.018;5.576;2023-07-29T04:10:06;10.93;;;2.65;;
67819;SDS011;54618;52.018;5.576;2023-07-29T04:12:32;6.57;;;2.45;;
67819;SDS011;54618;52.018;5.576;2023-07-29T04:14:57;4.72;;;2.60;;
67819;SDS011;54618;52.018;5.576;2023-07-29T04:17:23;4.80;;;2.05;;
67819;SDS011;54618;52.018;5.576;2023-07-29T04:19:48;5.30;;;2.47;;
67819;SDS011;54618;52.018;5.576;2023-07-29T04:22:15;7.88;;;2.40;;
67819;SDS011;54618;52.018;5.576;2023-07-29T04:24:41;5.75;;;2.67;;
67819;SDS011;54618;52.018;5.576;2023-07-29T04:27:06;7.07;;;3.03;;
67819;SDS011;54618;52.018;5.576;2023-07-29T04:29:32;5.32;;;2.40;;
67819;SDS011;54618;52.018;5.576;2023-07-29T04:31:57;4.63;;;2.25;;
67819;SDS011;54618;52.018;5.576;2023-07-29T04:34:23;4.90;;;2.47;;
67819;SDS011;54618;52.018;5.576;2023-07-29T04:36:48;4.55;;;2.33;;
67819;SDS011;54618;52.018;5.576;2023-07-29T04:39:14;4.22;;;2.35;;
67819;SDS011;54618;52.018;5.576;2023-07-29T04:41:40;5.95;;;2.10;;
67819;SDS011;54618;52.018;5.576;2023-07-29T04:44:06;3.60;;;2.17;;
67819;SDS011;54618;52.018;5.576;2023-07-29T04:46:32;6.20;;;2.10;;
67819;SDS011;54618;52.018;5.576;2023-07-29T04:48:58;4.95;;;2.17;;
67819;SDS011;54618;52.018;5.576;2023-07-29T04:51:23;4.00;;;1.85;;
67819;SDS011;54618;52.018;5.576;2023-07-29T04:53:49;6.18;;;1.92;;
67819;SDS011;54618;52.018;5.576;2023-07-29T04:56:15;9.20;;;1.98;;
67819;SDS011;54618;52.018;5.576;2023-07-29T04:58:41;3.95;;;1.95;;
67819;SDS011;54618;52.018;5.576;2023-07-29T05:01:06;4.00;;;1.95;;
67819;SDS011;54618;52.018;5.576;2023-07-29T05:03:32;5.43;;;2.00;;
67819;SDS011;54618;52.018;5.576;2023-07-29T05:05:58;4.60;;;2.35;;
67819;SDS011;54618;52.018;5.576;2023-07-29T05:08:24;5.35;;;2.00;;
67819;SDS011;54618;52.018;5.576;2023-07-29T05:10:51;6.80;;;1.92;;
67819;SDS011;54618;52.018;5.576;2023-07-29T05:13:17;4.05;;;1.95;;
67819;SDS011;54618;52.018;5.576;2023-07-29T05:15:43;5.95;;;1.95;;
67819;SDS011;54618;52.018;5.576;2023-07-29T05:18:09;4.32;;;2.00;;
67819;SDS011;54618;52.018;5.576;2023-07-29T05:20:35;5.97;;;2.25;;
67819;SDS011;54618;52.018;5.576;2023-07-29T05:23:01;4.10;;;2.03;;
67819;SDS011;54618;52.018;5.576;2023-07-29T05:25:27;7.20;;;2.28;;
67819;SDS011;54618;52.018;5.576;2023-07-29T05:27:54;5.18;;;2.20;;
67819;SDS011;54618;52.018;5.576;2023-07-29T05:30:19;5.57;;;2.28;;
67819;SDS011;54618;52.018;5.576;2023-07-29T05:32:45;5.88;;;1.92;;
67819;SDS011;54618;52.018;5.576;2023-07-29T05:35:10;3.80;;;2.10;;
67819;SDS011;54618;52.018;5.576;2023-07-29T05:37:39;4.90;;;2.22;;
67819;SDS011;54618;52.018;5.576;2023-07-29T05:40:07;7.65;;;2.60;;
67819;SDS011;54618;52.018;5.576;2023-07-29T05:42:33;4.20;;;2.22;;
67819;SDS011;54618;52.018;5.576;2023-07-29T05:45:01;6.15;;;2.63;;
67819;SDS011;54618;52.018;5.576;2023-07-29T05:47:27;4.82;;;2.42;;
67819;SDS011;54618;52.018;5.576;2023-07-29T05:49:52;5.28;;;2.60;;
67819;SDS011;54618;52.018;5.576;2023-07-29T05:52:18;6.68;;;2.55;;
67819;SDS011;54618;52.018;5.576;2023-07-29T05:54:43;6.15;;;2.70;;
67819;SDS011;54618;52.018;5.576;2023-07-29T05:57:09;5.10;;;2.63;;
67819;SDS011;54618;52.018;5.576;2023-07-29T05:59:36;6.80;;;2.85;;
67819;SDS011;54618;52.018;5.576;2023-07-29T06:02:01;6.47;;;2.85;;
67819;SDS011;54618;52.018;5.576;2023-07-29T06:04:27;5.18;;;2.90;;
67819;SDS011;54618;52.018;5.576;2023-07-29T06:06:53;6.47;;;3.22;;
67819;SDS011;54618;52.018;5.576;2023-07-29T06:09:20;5.95;;;2.85;;
67819;SDS011;54618;52.018;5.576;2023-07-29T06:11:46;7.82;;;2.70;;
67819;SDS011;54618;52.018;5.576;2023-07-29T06:14:12;5.88;;;2.63;;
67819;SDS011;54618;52.018;5.576;2023-07-29T06:16:38;8.77;;;3.50;;
67819;SDS011;54618;52.018;5.576;2023-07-29T06:19:03;7.25;;;2.97;;
67819;SDS011;54618;52.018;5.576;2023-07-29T06:21:33;7.33;;;2.77;;
67819;SDS011;54618;52.018;5.576;2023-07-29T06:24:02;6.45;;;2.83;;
67819;SDS011;54618;52.018;5.576;2023-07-29T06:26:28;5.05;;;3.00;;
67819;SDS011;54618;52.018;5.576;2023-07-29T06:28:53;8.18;;;2.95;;
67819;SDS011;54618;52.018;5.576;2023-07-29T06:31:19;5.45;;;2.65;;
67819;SDS011;54618;52.018;5.576;2023-07-29T06:33:45;5.60;;;2.75;;
67819;SDS011;54618;52.018;5.576;2023-07-29T06:36:11;5.07;;;2.70;;
67819;SDS011;54618;52.018;5.576;2023-07-29T06:38:37;8.05;;;2.50;;
67819;SDS011;54618;52.018;5.576;2023-07-29T06:41:03;9.18;;;2.90;;
67819;SDS011;54618;52.018;5.576;2023-07-29T06:43:32;5.80;;;2.95;;
67819;SDS011;54618;52.018;5.576;2023-07-29T06:45:58;6.53;;;3.28;;
67819;SDS011;54618;52.018;5.576;2023-07-29T06:48:23;7.32;;;3.10;;
67819;SDS011;54618;52.018;5.576;2023-07-29T06:50:49;6.57;;;2.70;;
67819;SDS011;54618;52.018;5.576;2023-07-29T06:53:20;9.35;;;3.85;;
67819;SDS011;54618;52.018;5.576;2023-07-29T06:55:46;9.05;;;3.42;;
67819;SDS011;54618;52.018;5.576;2023-07-29T06:58:11;7.10;;;3.50;;
67819;SDS011;54618;52.018;5.576;2023-07-29T07:00:37;7.65;;;3.53;;
67819;SDS011;54618;52.018;5.576;2023-07-29T07:03:05;6.07;;;3.20;;
67819;SDS011;54618;52.018;5.576;2023-07-29T07:05:31;7.60;;;3.17;;
67819;SDS011;54618;52.018;5.576;2023-07-29T07:07:56;6.05;;;3.45;;
67819;SDS011;54618;52.018;5.576;2023-07-29T07:10:22;5.47;;;3.35;;
67819;SDS011;54618;52.018;5.576;2023-07-29T07:12:47;4.53;;;3.15;;
67819;SDS011;54618;52.018;5.576;2023-07-29T07:15:13;6.30;;;3.30;;
67819;SDS011;54618;52.018;5.576;2023-07-29T07:17:38;7.05;;;3.65;;
67819;SDS011;54618;52.018;5.576;2023-07-29T07:20:07;6.53;;;3.17;;
67819;SDS011;54618;52.018;5.576;2023-07-29T07:22:32;6.15;;;3.40;;
67819;SDS011;54618;52.018;5.576;2023-07-29T07:24:58;8.18;;;3.50;;
67819;SDS011;54618;52.018;5.576;2023-07-29T07:27:23;5.63;;;3.17;;
67819;SDS011;54618;52.018;5.576;2023-07-29T07:29:49;5.05;;;3.08;;
67819;SDS011;54618;52.018;5.576;2023-07-29T07:32:15;6.72;;;3.17;;
67819;SDS011;54618;52.018;5.576;2023-07-29T07:34:40;7.47;;;3.65;;
67819;SDS011;54618;52.018;5.576;2023-07-29T07:37:06;5.72;;;3.38;;
67819;SDS011;54618;52.018;5.576;2023-07-29T07:39:31;6.55;;;3.60;;
67819;SDS011;54618;52.018;5.576;2023-07-29T07:41:57;6.25;;;3.50;;
67819;SDS011;54618;52.018;5.576;2023-07-29T07:44:22;6.43;;;3.40;;
67819;SDS011;54618;52.018;5.576;2023-07-29T07:46:51;9.65;;;4.13;;
67819;SDS011;54618;52.018;5.576;2023-07-29T07:49:17;7.43;;;3.45;;
67819;SDS011;54618;52.018;5.576;2023-07-29T07:51:43;10.18;;;3.83;;
67819;SDS011;54618;52.018;5.576;2023-07-29T07:54:09;7.68;;;3.60;;
67819;SDS011;54618;52.018;5.576;2023-07-29T07:56:34;6.68;;;3.35;;
67819;SDS011;54618;52.018;5.576;2023-07-29T07:59:01;7.03;;;3.47;;
67819;SDS011;54618;52.018;5.576;2023-07-29T08:01:26;4.88;;;3.15;;
67819;SDS011;54618;52.018;5.576;2023-07-29T08:03:52;6.72;;;3.20;;
67819;SDS011;54618;52.018;5.576;2023-07-29T08:06:17;4.85;;;3.00;;
67819;SDS011;54618;52.018;5.576;2023-07-29T08:08:43;5.65;;;3.30;;
67819;SDS011;54618;52.018;5.576;2023-07-29T08:11:08;7.68;;;2.92;;
67819;SDS011;54618;52.018;5.576;2023-07-29T08:13:34;5.30;;;2.97;;
67819;SDS011;54618;52.018;5.576;2023-07-29T08:16:03;5.28;;;2.88;;
67819;SDS011;54618;52.018;5.576;2023-07-29T08:18:29;6.40;;;2.72;;
67819;SDS011;54618;52.018;5.576;2023-07-29T08:20:58;4.97;;;2.53;;
67819;SDS011;54618;52.018;5.576;2023-07-29T08:23:27;6.30;;;2.65;;
67819;SDS011;54618;52.018;5.576;2023-07-29T08:25:54;5.43;;;2.63;;
67819;SDS011;54618;52.018;5.576;2023-07-29T08:28:25;5.22;;;2.50;;
67819;SDS011;54618;52.018;5.576;2023-07-29T08:30:52;5.35;;;2.22;;
67819;SDS011;54618;52.018;5.576;2023-07-29T08:33:17;3.78;;;2.20;;
67819;SDS011;54618;52.018;5.576;2023-07-29T08:35:43;4.13;;;1.90;;
67819;SDS011;54618;52.018;5.576;2023-07-29T08:38:08;5.60;;;1.90;;
67819;SDS011;54618;52.018;5.576;2023-07-29T08:40:34;6.43;;;2.20;;
67819;SDS011;54618;52.018;5.576;2023-07-29T08:43:03;4.60;;;2.00;;
67819;SDS011;54618;52.018;5.576;2023-07-29T08:45:34;5.70;;;1.92;;
67819;SDS011;54618;52.018;5.576;2023-07-29T08:48:05;3.10;;;1.65;;
67819;SDS011;54618;52.018;5.576;2023-07-29T08:50:33;3.42;;;2.10;;
67819;SDS011;54618;52.018;5.576;2023-07-29T08:53:03;4.20;;;1.85;;
67819;SDS011;54618;52.018;5.576;2023-07-29T08:55:29;6.55;;;2.10;;
67819;SDS011;54618;52.018;5.576;2023-07-29T08:57:58;3.85;;;2.17;;
67819;SDS011;54618;52.018;5.576;2023-07-29T09:00:27;6.97;;;2.33;;
67819;SDS011;54618;52.018;5.576;2023-07-29T09:02:53;4.70;;;2.50;;
67819;SDS011;54618;52.018;5.576;2023-07-29T09:05:20;7.13;;;2.90;;
67819;SDS011;54618;52.018;5.576;2023-07-29T09:07:46;5.45;;;2.22;;
67819;SDS011;54618;52.018;5.576;2023-07-29T09:10:16;4.72;;;2.10;;
67819;SDS011;54618;52.018;5.576;2023-07-29T09:12:41;3.33;;;2.03;;
67819;SDS011;54618;52.018;5.576;2023-07-29T09:15:07;2.92;;;1.92;;
67819;SDS011;54618;52.018;5.576;2023-07-29T09:17:33;4.40;;;2.10;;
67819;SDS011;54618;52.018;5.576;2023-07-29T09:19:58;3.15;;;2.00;;
67819;SDS011;54618;52.018;5.576;2023-07-29T09:22:24;3.70;;;2.20;;
67819;SDS011;54618;52.018;5.576;2023-07-29T09:24:52;4.35;;;1.90;;
67819;SDS011;54618;52.018;5.576;2023-07-29T09:27:24;4.35;;;2.00;;
67819;SDS011;54618;52.018;5.576;2023-07-29T09:29:52;5.43;;;2.17;;
67819;SDS011;54618;52.018;5.576;2023-07-29T09:32:18;3.47;;;2.00;;
67819;SDS011;54618;52.018;5.576;2023-07-29T09:34:45;3.72;;;2.00;;
67819;SDS011;54618;52.018;5.576;2023-07-29T09:37:18;3.55;;;1.90;;
67819;SDS011;54618;52.018;5.576;2023-07-29T09:39:49;2.88;;;1.80;;
67819;SDS011;54618;52.018;5.576;2023-07-29T09:42:18;5.07;;;1.60;;
67819;SDS011;54618;52.018;5.576;2023-07-29T09:44:45;3.35;;;1.60;;
67819;SDS011;54618;52.018;5.576;2023-07-29T09:47:20;2.30;;;1.50;;
67819;SDS011;54618;52.018;5.576;2023-07-29T09:49:46;4.18;;;1.48;;
67819;SDS011;54618;52.018;5.576;2023-07-29T09:52:14;3.78;;;1.30;;
67819;SDS011;54618;52.018;5.576;2023-07-29T09:57:16;5.28;;;1.38;;
67819;SDS011;54618;52.018;5.576;2023-07-29T09:59:52;4.90;;;1.40;;
67819;SDS011;54618;52.018;5.576;2023-07-29T10:02:21;3.85;;;1.50;;
67819;SDS011;54618;52.018;5.576;2023-07-29T10:04:50;4.00;;;1.65;;
67819;SDS011;54618;52.018;5.576;2023-07-29T10:07:17;3.67;;;1.40;;
67819;SDS011;54618;52.018;5.576;2023-07-29T10:09:44;3.50;;;1.55;;
67819;SDS011;54618;52.018;5.576;2023-07-29T10:12:11;3.78;;;1.50;;
67819;SDS011;54618;52.018;5.576;2023-07-29T10:14:37;4.15;;;1.67;;
67819;SDS011;54618;52.018;5.576;2023-07-29T10:17:04;3.45;;;1.50;;
67819;SDS011;54618;52.018;5.576;2023-07-29T10:19:31;3.85;;;1.55;;
67819;SDS011;54618;52.018;5.576;2023-07-29T10:21:58;2.80;;;1.65;;
67819;SDS011;54618;52.018;5.576;2023-07-29T10:24:29;4.25;;;1.50;;
67819;SDS011;54618;52.018;5.576;2023-07-29T10:26:58;6.38;;;1.40;;
67819;SDS011;54618;52.018;5.576;2023-07-29T10:29:26;7.05;;;1.30;;
67819;SDS011;54618;52.018;5.576;2023-07-29T10:31:55;5.78;;;1.50;;
67819;SDS011;54618;52.018;5.576;2023-07-29T10:34:23;1.90;;;1.33;;
67819;SDS011;54618;52.018;5.576;2023-07-29T10:36:50;4.15;;;1.48;;
67819;SDS011;54618;52.018;5.576;2023-07-29T10:39:17;6.03;;;1.58;;
67819;SDS011;54618;52.018;5.576;2023-07-29T10:49:56;2.72;;;1.50;;
67819;SDS011;54618;52.018;5.576;2023-07-29T10:52:30;3.83;;;1.60;;
67819;SDS011;54618;52.018;5.576;2023-07-29T10:55:01;3.03;;;1.63;;
67819;SDS011;54618;52.018;5.576;2023-07-29T10:57:38;3.80;;;1.50;;
67819;SDS011;54618;52.018;5.576;2023-07-29T11:00:09;2.63;;;1.30;;
67819;SDS011;54618;52.018;5.576;2023-07-29T11:02:39;2.80;;;1.50;;
67819;SDS011;54618;52.018;5.576;2023-07-29T11:05:07;2.40;;;1.33;;
67819;SDS011;54618;52.018;5.576;2023-07-29T11:07:44;2.67;;;1.48;;
67819;SDS011;54618;52.018;5.576;2023-07-29T11:10:13;2.85;;;1.45;;
67819;SDS011;54618;52.018;5.576;2023-07-29T11:12:40;3.50;;;1.60;;
67819;SDS011;54618;52.018;5.576;2023-07-29T11:17:56;4.03;;;1.92;;
67819;SDS011;54618;52.018;5.576;2023-07-29T11:20:26;2.60;;;1.50;;
67819;SDS011;54618;52.018;5.576;2023-07-29T11:22:53;3.75;;;1.40;;
67819;SDS011;54618;52.018;5.576;2023-07-29T11:25:20;3.10;;;1.40;;
67819;SDS011;54618;52.018;5.576;2023-07-29T11:27:47;4.03;;;1.65;;
67819;SDS011;54618;52.018;5.576;2023-07-29T11:30:14;4.38;;;1.92;;
67819;SDS011;54618;52.018;5.576;2023-07-29T11:32:41;3.20;;;1.60;;
67819;SDS011;54618;52.018;5.576;2023-07-29T11:35:08;4.72;;;1.60;;
67819;SDS011;54618;52.018;5.576;2023-07-29T11:37:36;4.53;;;1.80;;
67819;SDS011;54618;52.018;5.576;2023-07-29T11:40:03;2.97;;;1.50;;
67819;SDS011;54618;52.018;5.576;2023-07-29T11:42:39;3.50;;;1.58;;
67819;SDS011;54618;52.018;5.576;2023-07-29T11:45:08;4.85;;;1.55;;
67819;SDS011;54618;52.018;5.576;2023-07-29T11:47:37;3.15;;;1.40;;
67819;SDS011;54618;52.018;5.576;2023-07-29T11:50:07;6.32;;;1.63;;
67819;SDS011;54618;52.018;5.576;2023-07-29T11:52:39;3.67;;;1.48;;
67819;SDS011;54618;52.018;5.576;2023-07-29T11:55:06;3.78;;;1.60;;
67819;SDS011;54618;52.018;5.576;2023-07-29T11:57:36;2.75;;;1.67;;
67819;SDS011;54618;52.018;5.576;2023-07-29T12:02:31;5.57;;;1.75;;
67819;SDS011;54618;52.018;5.576;2023-07-29T12:04:57;6.47;;;1.90;;
67819;SDS011;54618;52.018;5.576;2023-07-29T12:07:23;2.83;;;1.70;;
67819;SDS011;54618;52.018;5.576;2023-07-29T12:09:49;3.58;;;1.70;;
67819;SDS011;54618;52.018;5.576;2023-07-29T12:12:15;3.60;;;1.92;;
67819;SDS011;54618;52.018;5.576;2023-07-29T12:14:45;3.60;;;1.80;;
67819;SDS011;54618;52.018;5.576;2023-07-29T12:17:14;3.47;;;1.75;;
67819;SDS011;54618;52.018;5.576;2023-07-29T12:19:40;4.70;;;1.60;;
67819;SDS011;54618;52.018;5.576;2023-07-29T12:22:07;3.42;;;2.00;;
67819;SDS011;54618;52.018;5.576;2023-07-29T12:24:35;3.53;;;1.80;;
67819;SDS011;54618;52.018;5.576;2023-07-29T12:27:10;2.67;;;1.60;;
67819;SDS011;54618;52.018;5.576;2023-07-29T12:29:41;3.60;;;1.70;;
67819;SDS011;54618;52.018;5.576;2023-07-29T12:32:08;3.90;;;1.40;;
67819;SDS011;54618;52.018;5.576;2023-07-29T12:34:38;2.53;;;1.65;;
67819;SDS011;54618;52.018;5.576;2023-07-29T12:37:06;1.55;;;1.15;;
67819;SDS011;54618;52.018;5.576;2023-07-29T12:39:33;2.53;;;0.90;;
67819;SDS011;54618;52.018;5.576;2023-07-29T12:44:36;2.45;;;1.30;;
67819;SDS011;54618;52.018;5.576;2023-07-29T12:47:04;2.75;;;1.23;;
67819;SDS011;54618;52.018;5.576;2023-07-29T12:49:34;2.85;;;1.40;;
67819;SDS011;54618;52.018;5.576;2023-07-29T12:52:00;2.35;;;1.27;;
67819;SDS011;54618;52.018;5.576;2023-07-29T12:54:26;2.10;;;1.30;;
67819;SDS011;54618;52.018;5.576;2023-07-29T12:56:54;2.08;;;1.33;;
67819;SDS011;54618;52.018;5.576;2023-07-29T12:59:20;2.47;;;1.20;;
67819;SDS011;54618;52.018;5.576;2023-07-29T13:01:46;3.70;;;1.70;;
67819;SDS011;54618;52.018;5.576;2023-07-29T13:04:11;2.22;;;1.10;;
67819;SDS011;54618;52.018;5.576;2023-07-29T13:06:37;1.65;;;1.00;;
67819;SDS011;54618;52.018;5.576;2023-07-29T13:09:06;2.03;;;1.10;;
67819;SDS011;54618;52.018;5.576;2023-07-29T13:11:37;2.22;;;1.20;;
67819;SDS011;54618;52.018;5.576;2023-07-29T13:14:14;2.10;;;1.20;;
67819;SDS011;54618;52.018;5.576;2023-07-29T13:16:40;2.58;;;1.40;;
67819;SDS011;54618;52.018;5.576;2023-07-29T13:19:06;3.50;;;1.58;;
67819;SDS011;54618;52.018;5.576;2023-07-29T13:21:31;5.28;;;1.90;;
67819;SDS011;54618;52.018;5.576;2023-07-29T13:23:57;4.97;;;1.73;;
67819;SDS011;54618;52.018;5.576;2023-07-29T13:26:23;3.17;;;1.80;;
67819;SDS011;54618;52.018;5.576;2023-07-29T13:28:48;5.15;;;1.90;;
67819;SDS011;54618;52.018;5.576;2023-07-29T13:31:14;4.10;;;2.03;;
67819;SDS011;54618;52.018;5.576;2023-07-29T13:33:40;4.03;;;2.13;;
67819;SDS011;54618;52.018;5.576;2023-07-29T13:36:12;3.70;;;2.45;;
67819;SDS011;54618;52.018;5.576;2023-07-29T13:38:44;4.40;;;3.20;;
67819;SDS011;54618;52.018;5.576;2023-07-29T13:41:23;7.57;;;3.25;;
67819;SDS011;54618;52.018;5.576;2023-07-29T13:43:48;4.93;;;3.28;;
67819;SDS011;54618;52.018;5.576;2023-07-29T13:46:14;3.58;;;2.83;;
67819;SDS011;54618;52.018;5.576;2023-07-29T13:48:40;4.18;;;2.70;;
67819;SDS011;54618;52.018;5.576;2023-07-29T13:51:08;3.08;;;2.10;;
67819;SDS011;54618;52.018;5.576;2023-07-29T13:53:42;3.20;;;2.15;;
67819;SDS011;54618;52.018;5.576;2023-07-29T13:56:08;3.60;;;2.47;;
67819;SDS011;54618;52.018;5.576;2023-07-29T13:58:33;3.60;;;2.30;;
67819;SDS011;54618;52.018;5.576;2023-07-29T14:01:02;3.63;;;2.45;;
67819;SDS011;54618;52.018;5.576;2023-07-29T14:03:28;4.43;;;2.35;;
67819;SDS011;54618;52.018;5.576;2023-07-29T14:05:53;2.70;;;2.00;;
67819;SDS011;54618;52.018;5.576;2023-07-29T14:08:19;3.92;;;2.30;;
67819;SDS011;54618;52.018;5.576;2023-07-29T14:10:44;3.17;;;2.10;;
67819;SDS011;54618;52.018;5.576;2023-07-29T14:13:10;4.07;;;2.35;;
67819;SDS011;54618;52.018;5.576;2023-07-29T14:15:36;3.80;;;2.50;;
67819;SDS011;54618;52.018;5.576;2023-07-29T14:18:01;4.32;;;2.55;;
67819;SDS011;54618;52.018;5.576;2023-07-29T14:20:27;5.47;;;2.20;;
67819;SDS011;54618;52.018;5.576;2023-07-29T14:22:53;3.20;;;2.20;;
67819;SDS011;54618;52.018;5.576;2023-07-29T14:25:18;4.43;;;2.40;;
67819;SDS011;54618;52.018;5.576;2023-07-29T14:27:44;3.05;;;2.13;;
67819;SDS011;54618;52.018;5.576;2023-07-29T14:30:10;3.83;;;2.35;;
67819;SDS011;54618;52.018;5.576;2023-07-29T14:32:36;2.50;;;1.90;;
67819;SDS011;54618;52.018;5.576;2023-07-29T14:35:02;3.80;;;2.20;;
67819;SDS011;54618;52.018;5.576;2023-07-29T14:37:29;3.67;;;2.20;;
67819;SDS011;54618;52.018;5.576;2023-07-29T14:39:56;3.60;;;1.88;;
67819;SDS011;54618;52.018;5.576;2023-07-29T14:42:24;4.13;;;1.90;;
67819;SDS011;54618;52.018;5.576;2023-07-29T14:44:50;2.90;;;1.55;;
67819;SDS011;54618;52.018;5.576;2023-07-29T14:47:15;4.90;;;1.70;;
67819;SDS011;54618;52.018;5.576;2023-07-29T14:49:41;3.25;;;1.70;;
67819;SDS011;54618;52.018;5.576;2023-07-29T14:52:07;2.72;;;1.60;;
67819;SDS011;54618;52.018;5.576;2023-07-29T14:54:32;2.90;;;1.50;;
67819;SDS011;54618;52.018;5.576;2023-07-29T14:56:58;2.70;;;1.60;;
67819;SDS011;54618;52.018;5.576;2023-07-29T14:59:23;2.20;;;1.50;;
67819;SDS011;54618;52.018;5.576;2023-07-29T15:01:49;2.08;;;1.40;;
67819;SDS011;54618;52.018;5.576;2023-07-29T15:04:22;2.33;;;1.50;;
67819;SDS011;54618;52.018;5.576;2023-07-29T15:06:51;2.80;;;1.40;;
67819;SDS011;54618;52.018;5.576;2023-07-29T15:09:17;2.53;;;1.67;;
67819;SDS011;54618;52.018;5.576;2023-07-29T15:11:43;2.40;;;1.35;;
67819;SDS011;54618;52.018;5.576;2023-07-29T15:14:08;2.63;;;1.40;;
67819;SDS011;54618;52.018;5.576;2023-07-29T15:16:34;4.80;;;1.48;;